Strona główna
METAR-TAF:

METAR-TAF

Lotnisko :

Port lotniczy Ivalo

Ivalo, Finlandia

Szerokość geograficzna: 68-37N, Długość geograficzna: 027-25E, wysokość: 147 m

Aktualna obserwacja pogody

Raport powstał 19 minut temu, godzina 01:20 UTC
Wiatr 7 kt od południowo-południowy zachód
Temperatura -10°C
Wilgotność 72%
Ciśnienie 1022 hPa
Widzialność 10 km lub więcej
Mało chmury na wysokości 3400 ft

METAR: EFIV 060120Z AUTO 21007KT 9999 FEW034 M10/M14 Q1022

czas: 04:39 (01:39 UTC)


TAF: brakujący

Obserwacja i prognoza pogody dla ponad 4000 lotnisk (raport METAR i TAF).

Dostępne stacje oznaczono żółtymi i czerwonymi punktami na mapie.

Najedź kursorem aby zobaczyć nazwę stacji.

Kliknij aby zobaczyć obserwacje i prognozy pogody.

Aby zmienić mapę: kliknij na zielony przycisk z czarnym krzyżykiem, aby powiększyć; na zielony przycisk z myślnikiem, aby pomniejszyć; na zielone strzałki, aby przejść do map sąsiednich.


METAR-TAF: